createdAt,value
2023-05-18T00:06:03.425Z,78.91
2023-05-18T00:12:24.254Z,78.69
2023-05-18T00:18:45.248Z,78.76
2023-05-18T00:25:06.225Z,78.75
2023-05-18T00:30:27.258Z,78.43
2023-05-18T00:35:31.455Z,78.14
2023-05-18T00:40:32.827Z,78.28
2023-05-18T00:45:34.152Z,78.16
2023-05-18T00:50:35.972Z,78.32
2023-05-18T00:55:37.579Z,78.18
2023-05-18T01:00:39.534Z,77.82
2023-05-18T01:05:41.608Z,77.83
2023-05-18T01:10:44.366Z,77.73
2023-05-18T01:15:52.163Z,77.88
2023-05-18T01:21:12.840Z,77.70
2023-05-18T01:26:16.076Z,77.77
2023-05-18T01:31:18.711Z,77.54
2023-05-18T01:36:20.040Z,77.57
2023-05-18T01:41:23.604Z,77.63
2023-05-18T01:46:35.821Z,77.60
2023-05-18T01:51:43.384Z,77.32
2023-05-18T01:56:44.674Z,77.26
2023-05-18T02:01:47.042Z,77.33
2023-05-18T02:06:53.487Z,77.53
2023-05-18T02:11:55.088Z,77.60
2023-05-18T02:16:58.973Z,77.25
2023-05-18T02:22:59.881Z,77.33
2023-05-18T02:29:20.757Z,77.05
2023-05-18T02:34:42.060Z,76.91
2023-05-18T02:39:43.295Z,76.94
2023-05-18T02:44:44.473Z,76.96
2023-05-18T02:50:48.183Z,76.93
2023-05-18T02:57:09.645Z,76.98
2023-05-18T03:03:50.100Z,77.13
2023-05-18T03:10:11.318Z,77.08
2023-05-18T03:16:32.628Z,77.15
2023-05-18T03:22:54.242Z,76.90
2023-05-18T03:29:15.245Z,76.54
2023-05-18T03:35:48.623Z,76.87
2023-05-18T03:42:10.081Z,76.82
2023-05-18T03:48:31.022Z,76.65
2023-05-18T03:53:52.207Z,76.64
2023-05-18T03:58:53.381Z,76.47
2023-05-18T04:03:55.777Z,76.54
2023-05-18T04:08:56.980Z,76.65
2023-05-18T04:14:00.284Z,76.91
2023-05-18T04:19:05.017Z,76.53
2023-05-18T04:24:08.953Z,76.63
2023-05-18T04:29:12.589Z,76.75
2023-05-18T04:34:17.158Z,76.56
2023-05-18T04:39:22.765Z,76.47
2023-05-18T04:44:26.749Z,76.26
2023-05-18T04:49:28.236Z,76.26
2023-05-18T04:54:32.443Z,76.19
2023-05-18T04:59:36.420Z,76.14
2023-05-18T05:04:38.519Z,75.89
2023-05-18T05:09:39.799Z,75.94
2023-05-18T05:15:40.892Z,75.97
2023-05-18T05:22:01.903Z,75.95
2023-05-18T05:27:25.401Z,75.53
2023-05-18T05:32:26.752Z,75.21
2023-05-18T05:37:29.079Z,74.92
2023-05-18T05:42:30.449Z,74.64
2023-05-18T05:47:32.087Z,74.82
2023-05-18T05:52:34.098Z,74.60
2023-05-18T05:57:36.172Z,74.36
2023-05-18T06:02:38.134Z,74.27
2023-05-18T06:07:40.097Z,73.94
2023-05-18T06:12:41.331Z,73.94
2023-05-18T06:17:43.463Z,73.35
2023-05-18T06:22:45.157Z,72.98
2023-05-18T06:27:57.811Z,72.22
2023-05-18T06:33:20.597Z,72.33
2023-05-18T06:38:21.761Z,71.54
2023-05-18T06:43:26.100Z,70.38
2023-05-18T06:48:37.936Z,70.43
2023-05-18T06:53:39.440Z,70.02
2023-05-18T06:58:41.242Z,70.12
2023-05-18T07:03:43.413Z,69.18
2023-05-18T07:08:44.942Z,68.74
2023-05-18T07:14:06.077Z,67.93
2023-05-18T07:19:07.448Z,66.60
2023-05-18T07:24:08.811Z,66.07
2023-05-18T07:30:09.802Z,65.62
2023-05-18T07:35:19.516Z,64.86
2023-05-18T07:40:20.700Z,64.62
2023-05-18T07:45:23.159Z,63.59
2023-05-18T07:50:24.280Z,63.03
2023-05-18T07:55:25.971Z,62.74
2023-05-18T08:00:27.314Z,62.26
2023-05-18T08:05:28.899Z,61.90
2023-05-18T08:10:30.267Z,61.69
2023-05-18T08:15:31.649Z,60.92
2023-05-18T08:20:33.034Z,60.78
2023-05-18T08:25:34.452Z,60.08
2023-05-18T08:30:35.745Z,59.13
2023-05-18T08:35:37.027Z,58.30
2023-05-18T08:40:49.601Z,58.01
2023-05-18T08:46:17.025Z,56.97
2023-05-18T08:51:34.172Z,56.26
2023-05-18T08:56:36.737Z,54.73
2023-05-18T09:01:38.104Z,54.08
2023-05-18T09:06:40.359Z,53.07
2023-05-18T09:12:41.340Z,53.74
2023-05-18T09:18:03.000Z,53.55
2023-05-18T09:23:04.598Z,52.12
2023-05-18T09:44:04.598Z,51.42
2023-05-18T09:49:07.202Z,51.30
2023-05-18T09:54:09.638Z,51.76
2023-05-18T09:59:15.050Z,51.80
2023-05-18T10:04:19.163Z,52.45
2023-05-18T10:09:20.418Z,52.40
2023-05-18T10:14:28.195Z,52.31
2023-05-18T10:19:34.208Z,52.12
2023-05-18T10:24:39.019Z,52.37
2023-05-18T10:29:40.821Z,53.25
2023-05-18T10:35:41.760Z,53.71
2023-05-18T10:42:02.954Z,53.56
2023-05-18T10:48:24.065Z,53.57
2023-05-18T10:53:47.090Z,53.05
2023-05-18T10:58:48.630Z,53.44
2023-05-18T11:03:50.357Z,53.51
2023-05-18T11:08:51.663Z,54.25
2023-05-18T11:13:53.342Z,54.00
2023-05-18T11:19:05.364Z,54.63
2023-05-18T11:24:21.577Z,54.70
2023-05-18T11:29:22.848Z,53.60
2023-05-18T11:34:39.954Z,54.62
2023-05-18T11:40:40.964Z,54.59
2023-05-18T11:46:02.232Z,54.91
2023-05-18T11:51:08.922Z,55.38
2023-05-18T11:56:12.194Z,54.90
2023-05-18T12:01:13.763Z,55.50
2023-05-18T12:07:14.753Z,55.74
2023-05-18T12:13:35.624Z,56.13
2023-05-18T12:19:36.506Z,56.39
2023-05-18T12:24:41.549Z,57.08
2023-05-18T12:29:43.294Z,57.06
2023-05-18T12:34:44.855Z,56.59
2023-05-18T12:39:51.726Z,57.45
2023-05-18T12:44:53.282Z,57.19
2023-05-18T12:49:54.535Z,57.47
2023-05-18T12:55:00.539Z,57.58
2023-05-18T13:00:09.407Z,57.83
2023-05-18T13:05:11.668Z,57.95
2023-05-18T13:10:24.631Z,57.43
2023-05-18T13:15:25.832Z,56.71
2023-05-18T13:20:47.818Z,57.17
2023-05-18T13:25:50.037Z,57.33
2023-05-18T13:30:51.324Z,57.24
2023-05-18T13:35:52.525Z,57.59
2023-05-18T13:40:53.721Z,57.81
2023-05-18T13:45:55.042Z,57.64
2023-05-18T13:51:55.978Z,57.31
2023-05-18T13:58:16.961Z,57.12
2023-05-18T14:04:37.869Z,57.11
2023-05-18T14:10:58.768Z,56.61
2023-05-18T14:17:19.686Z,56.92
2023-05-18T14:22:41.100Z,56.62
2023-05-18T14:27:42.359Z,56.56
2023-05-18T14:32:43.971Z,56.83
2023-05-18T14:37:45.335Z,56.57
2023-05-18T14:42:46.567Z,56.87
2023-05-18T14:47:47.776Z,56.70
2023-05-18T14:52:49.053Z,57.05
2023-05-18T14:57:50.514Z,56.86
2023-05-18T15:02:52.080Z,56.52
2023-05-18T15:07:53.634Z,56.78
2023-05-18T15:12:55.046Z,57.00
2023-05-18T15:17:56.445Z,57.95
2023-05-18T15:22:58.051Z,58.69
2023-05-18T15:27:59.610Z,59.06
2023-05-18T15:33:05.800Z,58.68
2023-05-18T15:38:07.164Z,58.48
2023-05-18T15:43:08.339Z,58.35
2023-05-18T15:48:09.565Z,58.57
2023-05-18T15:53:10.900Z,58.30
2023-05-18T15:58:15.461Z,59.15
2023-05-18T16:04:16.667Z,59.94
2023-05-18T16:10:37.613Z,60.51
2023-05-18T16:16:58.784Z,60.10
2023-05-18T16:23:19.957Z,61.10
2023-05-18T16:29:50.972Z,61.47
2023-05-18T16:41:59.749Z,62.71
2023-05-18T16:48:20.619Z,62.96
2023-05-18T16:54:41.501Z,63.14
2023-05-18T17:01:03.052Z,63.50
2023-05-18T17:07:25.350Z,64.34
2023-05-18T17:13:46.261Z,64.83
2023-05-18T17:20:07.172Z,65.65
2023-05-18T17:26:28.010Z,65.91
2023-05-18T17:32:48.975Z,66.32
2023-05-18T17:38:10.289Z,66.68
2023-05-18T17:44:11.234Z,66.95
2023-05-18T17:50:32.364Z,67.08
2023-05-18T17:57:03.681Z,67.41
2023-05-18T18:02:25.012Z,67.93
2023-05-18T18:07:26.475Z,67.86
2023-05-18T18:12:27.861Z,67.98
2023-05-18T18:17:29.291Z,68.22
2023-05-18T18:22:30.653Z,68.41
2023-05-18T18:27:31.921Z,68.78
2023-05-18T18:32:33.309Z,68.95
2023-05-18T18:37:34.444Z,69.15
2023-05-18T18:42:35.699Z,69.35
2023-05-18T18:47:56.853Z,69.50
2023-05-18T18:54:17.850Z,69.75
2023-05-18T19:00:38.901Z,70.38
2023-05-18T19:06:59.826Z,70.43
2023-05-18T19:13:20.883Z,70.63
2023-05-18T19:19:51.786Z,70.59
2023-05-18T19:26:12.667Z,70.60
2023-05-18T19:32:33.988Z,70.54
2023-05-18T19:38:01.473Z,70.43
2023-05-18T19:43:07.929Z,70.39
2023-05-18T19:49:09.143Z,70.27
2023-05-18T19:55:36.241Z,70.46
2023-05-18T20:01:57.384Z,70.51
2023-05-18T20:08:18.834Z,70.69
2023-05-18T20:14:46.427Z,70.74
2023-05-18T20:21:08.843Z,70.50
2023-05-18T20:27:03.175Z,70.64
2023-05-18T20:33:05.956Z,70.60
2023-05-18T20:38:48.930Z,70.64
2023-05-18T20:44:08.142Z,70.65
2023-05-18T20:49:17.789Z,70.76
2023-05-18T20:54:24.071Z,70.95
2023-05-18T20:59:39.003Z,70.96
2023-05-18T21:04:52.509Z,71.00
2023-05-18T21:09:58.314Z,71.24
2023-05-18T21:15:13.322Z,71.43
2023-05-18T21:20:39.770Z,71.42
2023-05-18T21:26:50.201Z,71.51
2023-05-18T21:32:43.859Z,71.40
2023-05-18T21:38:47.686Z,71.47
2023-05-18T21:45:13.560Z,71.59
2023-05-18T21:51:17.855Z,71.62
2023-05-18T21:57:52.938Z,71.61
2023-05-18T22:04:21.602Z,71.80
2023-05-18T22:10:43.294Z,71.69
2023-05-18T22:16:08.830Z,71.82
2023-05-18T22:22:16.569Z,71.92
2023-05-18T22:28:44.328Z,71.94
2023-05-18T22:35:25.867Z,71.99
2023-05-18T22:41:40.764Z,71.92
2023-05-18T22:48:40.491Z,72.10
2023-05-18T22:55:17.637Z,71.88
2023-05-18T23:01:08.014Z,71.84
2023-05-18T23:06:56.394Z,71.70
2023-05-18T23:12:45.621Z,71.69
2023-05-18T23:19:13.544Z,71.63
2023-05-18T23:24:43.506Z,71.40
2023-05-18T23:30:44.985Z,71.26
2023-05-18T23:37:06.967Z,71.43
2023-05-18T23:43:09.298Z,71.78
2023-05-18T23:49:09.487Z,71.74
2023-05-18T23:54:49.729Z,71.61
